createdAt,value
2023-02-26T00:01:18.546Z,2.20
2023-02-26T00:03:49.634Z,1.40
2023-02-26T00:06:16.491Z,1.20
2023-02-26T00:08:43.552Z,0.93
2023-02-26T00:11:11.503Z,0.85
2023-02-26T00:13:39.653Z,0.82
2023-02-26T00:16:33.747Z,1.10
2023-02-26T00:19:03.664Z,1.40
2023-02-26T00:21:31.840Z,1.63
2023-02-26T00:23:58.842Z,1.25
2023-02-26T00:26:27.412Z,0.90
2023-02-26T00:28:55.184Z,1.38
2023-02-26T00:31:25.096Z,0.70
2023-02-26T00:33:54.014Z,0.57
2023-02-26T00:36:43.656Z,0.82
2023-02-26T00:39:34.442Z,1.05
2023-02-26T00:42:01.481Z,1.35
2023-02-26T00:44:28.628Z,1.20
2023-02-26T00:47:10.322Z,1.40
2023-02-26T00:49:53.292Z,0.70
2023-02-26T00:52:28.925Z,0.80
2023-02-26T00:54:55.891Z,2.10
2023-02-26T00:57:22.752Z,1.58
2023-02-26T00:59:49.545Z,1.77
2023-02-26T01:02:16.348Z,1.60
2023-02-26T01:04:43.741Z,2.38
2023-02-26T01:07:11.038Z,2.35
2023-02-26T01:09:38.578Z,1.60
2023-02-26T01:12:09.122Z,1.30
2023-02-26T01:14:36.687Z,1.30
2023-02-26T01:17:11.648Z,2.22
2023-02-26T01:19:50.329Z,2.25
2023-02-26T01:22:23.657Z,1.55
2023-02-26T01:24:56.730Z,1.90
2023-02-26T01:27:23.876Z,1.80
2023-02-26T01:29:50.952Z,2.10
2023-02-26T01:32:29.884Z,1.90
2023-02-26T01:35:04.963Z,0.90
2023-02-26T01:37:41.197Z,1.20
2023-02-26T01:40:46.657Z,1.67
2023-02-26T01:43:20.586Z,1.30
2023-02-26T01:46:12.176Z,1.50
2023-02-26T01:48:59.490Z,1.80
2023-02-26T01:51:50.362Z,1.90
2023-02-26T01:54:21.899Z,1.27
2023-02-26T01:56:52.643Z,1.95
2023-02-26T01:59:24.564Z,2.20
2023-02-26T02:01:57.001Z,0.70
2023-02-26T02:04:24.568Z,0.98
2023-02-26T02:06:51.858Z,0.98
2023-02-26T02:09:18.721Z,1.45
2023-02-26T02:12:10.785Z,1.08
2023-02-26T02:15:04.635Z,1.38
2023-02-26T02:17:53.479Z,0.90
2023-02-26T02:20:39.779Z,0.60
2023-02-26T02:23:23.010Z,0.40
2023-02-26T02:26:20.319Z,0.65
2023-02-26T02:29:23.673Z,0.52
2023-02-26T02:32:14.171Z,0.28
2023-02-26T02:34:53.569Z,0.32
2023-02-26T02:37:33.005Z,0.40
2023-02-26T02:40:16.374Z,0.20
2023-02-26T02:42:53.624Z,0.45
2023-02-26T02:45:27.254Z,0.38
2023-02-26T02:47:59.425Z,0.52
2023-02-26T02:50:31.887Z,0.43
2023-02-26T02:53:04.581Z,0.35
2023-02-26T02:55:40.246Z,0.30
2023-02-26T02:58:12.429Z,0.40
2023-02-26T03:00:42.831Z,0.40
2023-02-26T03:03:21.720Z,0.55
2023-02-26T03:05:49.136Z,0.60
2023-02-26T03:08:18.672Z,0.30
2023-02-26T03:10:47.295Z,0.60
2023-02-26T03:13:17.589Z,0.68
2023-02-26T03:16:16.457Z,0.50
2023-02-26T03:19:11.832Z,0.93
2023-02-26T03:21:56.660Z,0.90
2023-02-26T03:24:53.184Z,0.85
2023-02-26T03:27:47.821Z,0.70
2023-02-26T03:30:21.087Z,1.42
2023-02-26T03:33:29.265Z,1.08
2023-02-26T03:36:36.153Z,0.52
2023-02-26T03:39:31.587Z,0.50
2023-02-26T03:42:10.214Z,0.70
2023-02-26T03:45:15.805Z,0.65
2023-02-26T03:47:47.164Z,0.50
2023-02-26T03:50:18.280Z,0.40
2023-02-26T03:52:58.463Z,0.68
2023-02-26T03:55:45.753Z,0.85
2023-02-26T03:58:30.988Z,0.50
2023-02-26T04:01:22.694Z,0.60
2023-02-26T04:03:54.871Z,0.70
2023-02-26T04:06:22.195Z,0.98
2023-02-26T04:08:49.300Z,0.90
2023-02-26T04:11:21.923Z,0.80
2023-02-26T04:13:50.661Z,0.90
2023-02-26T04:16:18.788Z,1.10
2023-02-26T04:18:46.389Z,0.50
2023-02-26T04:21:14.932Z,0.70
2023-02-26T04:23:42.906Z,0.73
2023-02-26T04:26:10.204Z,0.65
2023-02-26T04:28:40.542Z,0.93
2023-02-26T04:31:08.097Z,0.98
2023-02-26T04:33:35.000Z,1.20
2023-02-26T04:36:02.019Z,1.15
2023-02-26T04:38:29.309Z,1.08
2023-02-26T04:40:56.861Z,1.20
2023-02-26T04:43:24.825Z,0.95
2023-02-26T04:46:07.052Z,1.00
2023-02-26T04:48:36.082Z,1.17
2023-02-26T04:51:03.168Z,0.90
2023-02-26T04:53:30.204Z,1.15
2023-02-26T04:55:57.157Z,0.63
2023-02-26T04:58:24.087Z,0.93
2023-02-26T05:00:53.662Z,1.33
2023-02-26T05:03:21.166Z,1.15
2023-02-26T05:05:48.882Z,0.77
2023-02-26T05:08:15.831Z,0.93
2023-02-26T05:10:42.717Z,1.13
2023-02-26T05:13:09.616Z,0.73
2023-02-26T05:15:36.460Z,0.90
2023-02-26T05:18:03.447Z,1.20
2023-02-26T05:20:30.267Z,0.95
2023-02-26T05:22:57.220Z,0.60
2023-02-26T05:25:24.495Z,0.93
2023-02-26T05:27:52.128Z,0.77
2023-02-26T05:30:19.173Z,0.95
2023-02-26T05:32:46.222Z,1.10
2023-02-26T05:35:13.370Z,0.80
2023-02-26T05:37:40.546Z,0.70
2023-02-26T05:40:12.161Z,0.70
2023-02-26T05:42:39.954Z,0.80
2023-02-26T05:45:07.740Z,1.20
2023-02-26T05:47:35.297Z,0.88
2023-02-26T05:50:02.994Z,0.80
2023-02-26T05:52:29.861Z,0.70
2023-02-26T05:54:56.798Z,1.00
2023-02-26T05:57:24.277Z,0.82
2023-02-26T05:59:51.431Z,1.58
2023-02-26T06:02:18.823Z,0.82
2023-02-26T06:04:45.807Z,1.30
2023-02-26T06:07:12.636Z,3.03
2023-02-26T06:09:39.670Z,1.10
2023-02-26T06:12:06.803Z,2.28
2023-02-26T06:14:34.289Z,1.80
2023-02-26T06:17:01.306Z,2.58
2023-02-26T06:19:28.096Z,2.40
2023-02-26T06:21:55.063Z,1.05
2023-02-26T06:24:22.000Z,1.50
2023-02-26T06:26:49.095Z,1.60
2023-02-26T06:29:18.348Z,1.00
2023-02-26T06:31:45.851Z,1.20
2023-02-26T06:34:12.943Z,1.50
2023-02-26T06:36:39.958Z,1.48
2023-02-26T06:39:08.119Z,1.48
2023-02-26T06:41:34.923Z,1.75
2023-02-26T06:44:02.184Z,1.40
2023-02-26T06:46:29.006Z,1.73
2023-02-26T06:48:55.984Z,1.70
2023-02-26T06:51:22.784Z,1.88
2023-02-26T06:53:49.833Z,2.03
2023-02-26T06:56:16.642Z,0.68
2023-02-26T06:58:43.547Z,1.13
2023-02-26T07:01:10.663Z,0.60
2023-02-26T07:03:37.589Z,1.00
2023-02-26T07:06:25.573Z,2.33
2023-02-26T07:08:51.741Z,2.47
2023-02-26T07:11:18.593Z,2.63
2023-02-26T07:13:45.491Z,2.08
2023-02-26T07:16:12.665Z,1.10
2023-02-26T07:18:39.525Z,1.50
2023-02-26T07:21:07.656Z,2.60
2023-02-26T07:23:34.784Z,1.90
2023-02-26T07:26:02.465Z,1.92
2023-02-26T07:28:29.260Z,3.47
2023-02-26T07:30:56.992Z,3.03
2023-02-26T07:33:24.135Z,2.20
2023-02-26T07:35:51.006Z,3.60
2023-02-26T07:38:19.526Z,4.07
2023-02-26T07:40:47.616Z,4.88
2023-02-26T07:43:14.494Z,5.25
2023-02-26T07:45:41.467Z,2.60
2023-02-26T07:48:08.300Z,3.72
2023-02-26T07:50:35.247Z,3.50
2023-02-26T07:53:02.134Z,2.40
2023-02-26T07:55:29.973Z,2.60
2023-02-26T07:57:56.846Z,2.55
2023-02-26T08:00:23.893Z,3.08
2023-02-26T08:02:50.811Z,2.42
2023-02-26T08:05:17.867Z,3.08
2023-02-26T08:07:44.739Z,3.33
2023-02-26T08:10:12.658Z,4.88
2023-02-26T08:12:39.537Z,4.43
2023-02-26T08:15:07.193Z,4.00
2023-02-26T08:17:34.142Z,3.40
2023-02-26T08:20:01.081Z,3.85
2023-02-26T08:22:28.066Z,5.05
2023-02-26T08:24:55.866Z,4.75
2023-02-26T08:27:22.687Z,4.22
2023-02-26T08:29:50.753Z,4.55
2023-02-26T08:32:20.089Z,2.90
2023-02-26T08:34:47.230Z,2.53
2023-02-26T08:37:14.573Z,2.92
2023-02-26T08:39:41.622Z,3.10
2023-02-26T08:42:10.217Z,2.97
2023-02-26T08:44:37.147Z,3.03
2023-02-26T08:47:04.272Z,3.67
2023-02-26T08:49:31.226Z,3.70
2023-02-26T08:51:58.062Z,4.03
2023-02-26T08:54:25.228Z,2.47
2023-02-26T08:56:53.595Z,3.05
2023-02-26T08:59:20.502Z,2.17
2023-02-26T09:01:47.395Z,2.00
2023-02-26T09:04:14.375Z,2.20
2023-02-26T09:06:41.246Z,0.73
2023-02-26T09:09:08.382Z,1.70
2023-02-26T09:11:36.863Z,1.60
2023-02-26T09:14:04.679Z,2.30
2023-02-26T09:16:32.082Z,2.40
2023-02-26T09:18:59.006Z,2.58
2023-02-26T09:21:26.007Z,2.40
2023-02-26T09:23:52.834Z,2.00
2023-02-26T09:26:19.738Z,1.33
2023-02-26T09:28:46.574Z,1.70
2023-02-26T09:31:13.490Z,1.92
2023-02-26T09:33:40.680Z,2.33
2023-02-26T09:36:07.683Z,2.78
2023-02-26T09:38:36.003Z,1.80
2023-02-26T09:41:06.761Z,1.67
2023-02-26T09:43:47.203Z,1.15
2023-02-26T09:46:42.488Z,1.98
2023-02-26T09:49:40.384Z,2.10
2023-02-26T09:52:28.530Z,2.40
2023-02-26T09:55:11.712Z,1.25
2023-02-26T09:57:43.369Z,2.30
2023-02-26T10:00:31.059Z,1.80
2023-02-26T10:03:22.892Z,2.30
2023-02-26T10:06:17.724Z,2.10
2023-02-26T10:09:22.048Z,2.22
2023-02-26T10:11:58.166Z,1.70
2023-02-26T10:14:49.075Z,2.58
2023-02-26T10:17:24.272Z,1.88
2023-02-26T10:19:55.941Z,1.40
2023-02-26T10:22:40.366Z,1.40
2023-02-26T10:25:13.574Z,1.90
2023-02-26T10:27:53.793Z,2.25
2023-02-26T10:30:28.743Z,2.30
2023-02-26T10:33:14.231Z,1.60
2023-02-26T10:35:47.926Z,1.65
2023-02-26T10:38:19.069Z,1.52
2023-02-26T10:41:06.186Z,1.80
2023-02-26T10:43:41.302Z,1.30
2023-02-26T10:46:38.020Z,2.10
2023-02-26T10:49:31.498Z,2.33
2023-02-26T10:52:05.930Z,1.52
2023-02-26T10:54:39.458Z,2.35
2023-02-26T10:57:15.046Z,1.50
2023-02-26T10:59:41.965Z,1.90
2023-02-26T11:02:39.742Z,1.80
2023-02-26T11:05:14.197Z,2.10
2023-02-26T11:07:41.361Z,1.70
2023-02-26T11:10:31.399Z,1.55
2023-02-26T11:12:58.830Z,2.10
2023-02-26T11:15:26.562Z,2.33
2023-02-26T11:17:58.373Z,2.00
2023-02-26T11:23:03.052Z,1.55
2023-02-26T11:25:33.933Z,1.50
2023-02-26T11:28:07.997Z,1.77
2023-02-26T11:30:38.799Z,1.60
2023-02-26T11:33:19.171Z,1.50
2023-02-26T11:35:46.886Z,1.98
2023-02-26T11:38:20.269Z,1.80
2023-02-26T11:40:49.793Z,2.17
2023-02-26T11:43:19.304Z,1.58
2023-02-26T11:45:49.458Z,1.45
2023-02-26T11:48:22.606Z,1.50
2023-02-26T11:50:53.106Z,1.63
2023-02-26T11:53:25.721Z,2.20
2023-02-26T11:55:58.558Z,2.05
2023-02-26T11:58:25.674Z,2.45
2023-02-26T12:00:53.716Z,1.88
2023-02-26T12:03:23.089Z,1.60
2023-02-26T12:05:53.280Z,1.80
2023-02-26T12:08:39.951Z,0.90
2023-02-26T12:11:34.567Z,1.25
2023-02-26T12:14:28.255Z,1.73
2023-02-26T12:17:35.731Z,1.67
2023-02-26T12:20:38.908Z,1.02
2023-02-26T12:23:31.322Z,1.52
2023-02-26T12:26:11.632Z,1.70
2023-02-26T12:28:52.411Z,1.35
2023-02-26T12:31:59.298Z,1.20
2023-02-26T12:34:55.510Z,1.45
2023-02-26T12:37:42.750Z,1.20
2023-02-26T12:40:37.891Z,1.23
2023-02-26T12:43:13.057Z,1.30
2023-02-26T12:46:07.411Z,1.20
2023-02-26T12:49:00.656Z,2.35
2023-02-26T12:51:47.320Z,1.38
2023-02-26T12:54:33.380Z,1.75
2023-02-26T12:57:35.080Z,1.95
2023-02-26T13:00:42.480Z,1.85
2023-02-26T13:03:38.442Z,2.50
2023-02-26T13:06:38.756Z,1.27
2023-02-26T13:09:23.680Z,1.70
2023-02-26T13:12:03.113Z,1.70
2023-02-26T13:14:52.605Z,2.00
2023-02-26T13:17:43.032Z,2.60
2023-02-26T13:20:23.938Z,2.20
2023-02-26T13:22:55.298Z,1.65
2023-02-26T13:25:38.953Z,2.08
2023-02-26T13:28:19.627Z,1.90
2023-02-26T13:30:50.472Z,1.95
2023-02-26T13:33:21.194Z,2.07
2023-02-26T13:35:50.033Z,3.13
2023-02-26T13:38:56.666Z,3.83
2023-02-26T13:41:40.757Z,2.80
2023-02-26T13:44:30.507Z,3.17
2023-02-26T13:47:42.657Z,2.88
2023-02-26T13:50:49.426Z,2.13
2023-02-26T13:53:42.893Z,1.77
2023-02-26T13:56:49.594Z,2.15
2023-02-26T13:59:25.737Z,2.10
2023-02-26T14:01:57.967Z,2.13
2023-02-26T14:04:29.367Z,1.55
2023-02-26T14:07:16.481Z,2.03
2023-02-26T14:09:56.691Z,1.20
2023-02-26T14:12:31.350Z,1.13
2023-02-26T14:15:20.166Z,1.55
2023-02-26T14:17:51.822Z,1.05
2023-02-26T14:20:27.816Z,1.25
2023-02-26T14:23:21.231Z,1.90
2023-02-26T14:25:50.087Z,2.10
2023-02-26T14:28:44.358Z,1.60
2023-02-26T14:31:19.873Z,1.23
2023-02-26T14:33:59.897Z,1.60
2023-02-26T14:36:35.786Z,1.63
2023-02-26T14:39:05.482Z,1.63
2023-02-26T14:41:41.418Z,1.80
2023-02-26T14:44:18.491Z,2.90
2023-02-26T14:46:45.693Z,2.45
2023-02-26T14:49:19.175Z,2.30
2023-02-26T14:52:10.535Z,2.30
2023-02-26T14:54:54.795Z,1.90
2023-02-26T14:58:01.291Z,2.00
2023-02-26T15:01:04.429Z,2.00
2023-02-26T15:03:57.276Z,3.15
2023-02-26T15:07:04.053Z,4.10
2023-02-26T15:10:09.826Z,5.25
2023-02-26T15:13:12.906Z,5.85
2023-02-26T15:15:48.820Z,4.57
2023-02-26T15:18:44.265Z,6.25
2023-02-26T15:21:50.186Z,6.10
2023-02-26T15:24:18.169Z,5.32
2023-02-26T15:26:55.043Z,6.10
2023-02-26T15:29:27.359Z,5.93
2023-02-26T15:31:57.844Z,7.40
2023-02-26T15:34:25.020Z,9.38
2023-02-26T15:36:53.567Z,14.90
2023-02-26T15:39:26.724Z,12.38
2023-02-26T15:41:55.734Z,11.15
2023-02-26T15:44:26.359Z,8.90
2023-02-26T15:46:56.764Z,6.40
2023-02-26T15:49:36.923Z,8.77
2023-02-26T15:52:05.817Z,6.68
2023-02-26T15:54:43.886Z,6.45
2023-02-26T15:57:13.897Z,5.47
2023-02-26T15:59:46.442Z,6.68
2023-02-26T16:02:16.113Z,5.40
2023-02-26T16:04:43.891Z,5.38
2023-02-26T16:07:12.347Z,4.22
2023-02-26T16:09:48.432Z,4.30
2023-02-26T16:12:19.195Z,3.90
2023-02-26T16:14:54.334Z,4.03
2023-02-26T16:17:28.368Z,4.22
2023-02-26T16:19:57.157Z,5.10
2023-02-26T16:22:47.527Z,9.27
2023-02-26T16:25:25.440Z,5.25
2023-02-26T16:28:22.664Z,7.00
2023-02-26T16:30:54.229Z,8.95
2023-02-26T16:33:24.072Z,8.15
2023-02-26T16:35:57.059Z,5.68
2023-02-26T16:38:27.698Z,6.38
2023-02-26T16:41:05.706Z,6.72
2023-02-26T16:43:57.701Z,8.20
2023-02-26T16:49:09.166Z,12.77
2023-02-26T16:51:38.579Z,71.05
2023-02-26T16:54:09.142Z,11.50
2023-02-26T16:56:40.345Z,35.08
2023-02-26T16:59:13.695Z,8.25
2023-02-26T17:01:47.843Z,5.28
2023-02-26T17:04:16.324Z,5.07
2023-02-26T17:06:43.351Z,4.10
2023-02-26T17:09:27.588Z,4.05
2023-02-26T17:12:05.279Z,3.00
2023-02-26T17:14:40.566Z,2.88
2023-02-26T17:17:08.134Z,3.35
2023-02-26T17:19:35.089Z,2.80
2023-02-26T17:22:04.002Z,2.88
2023-02-26T17:24:34.728Z,2.45
2023-02-26T17:27:03.089Z,2.10
2023-02-26T17:29:40.073Z,2.15
2023-02-26T17:32:16.674Z,3.28
2023-02-26T17:34:44.730Z,3.22
2023-02-26T17:37:15.301Z,4.00
2023-02-26T17:39:42.966Z,3.85
2023-02-26T17:42:15.530Z,4.88
2023-02-26T17:44:42.616Z,5.65
2023-02-26T17:47:16.661Z,5.60
2023-02-26T17:49:44.303Z,5.05
2023-02-26T17:52:11.212Z,3.63
2023-02-26T17:54:38.356Z,4.15
2023-02-26T17:57:06.335Z,3.67
2023-02-26T17:59:34.243Z,4.13
2023-02-26T18:02:01.389Z,7.28
2023-02-26T18:04:29.695Z,4.85
2023-02-26T18:06:56.801Z,4.38
2023-02-26T18:09:23.677Z,4.70
2023-02-26T18:11:50.650Z,4.28
2023-02-26T18:14:17.439Z,5.53
2023-02-26T18:16:46.761Z,4.85
2023-02-26T18:19:15.180Z,4.47
2023-02-26T18:21:42.426Z,5.25
2023-02-26T18:24:09.295Z,4.90
2023-02-26T18:26:36.501Z,5.40
2023-02-26T18:29:03.803Z,3.80
2023-02-26T18:31:35.435Z,3.28
2023-02-26T18:36:37.876Z,3.50
2023-02-26T18:39:08.172Z,3.60
2023-02-26T18:41:43.430Z,5.75
2023-02-26T18:44:12.420Z,3.90
2023-02-26T18:46:43.319Z,13.23
2023-02-26T18:49:17.611Z,13.17
2023-02-26T18:51:44.772Z,6.70
2023-02-26T18:54:11.786Z,9.10
2023-02-26T18:56:38.812Z,358.38
2023-02-26T18:59:05.741Z,462.67
2023-02-26T19:01:32.811Z,342.67
2023-02-26T19:03:59.716Z,110.18
2023-02-26T19:06:26.520Z,13.30
2023-02-26T19:08:53.459Z,13.20
2023-02-26T19:11:20.301Z,10.95
2023-02-26T19:13:49.598Z,11.13
2023-02-26T19:16:16.443Z,10.55
2023-02-26T19:18:43.325Z,8.30
2023-02-26T19:21:10.942Z,7.45
2023-02-26T19:23:37.768Z,10.00
2023-02-26T19:26:05.575Z,9.27
2023-02-26T19:28:32.579Z,10.90
2023-02-26T19:30:59.570Z,9.48
2023-02-26T19:33:26.714Z,13.38
2023-02-26T19:35:53.816Z,23.77
2023-02-26T19:38:20.790Z,62.40
2023-02-26T19:40:48.798Z,47.13
2023-02-26T19:43:20.103Z,13.85
2023-02-26T19:46:00.023Z,9.88
2023-02-26T19:48:28.183Z,10.32
2023-02-26T19:50:56.365Z,11.77
2023-02-26T19:53:27.701Z,9.13
2023-02-26T19:55:55.621Z,7.83
2023-02-26T19:58:25.920Z,7.35
2023-02-26T20:00:55.751Z,6.05
2023-02-26T20:03:25.384Z,5.90
2023-02-26T20:05:54.156Z,4.55
2023-02-26T20:08:22.101Z,3.75
2023-02-26T20:10:54.289Z,4.45
2023-02-26T20:13:22.244Z,5.93
2023-02-26T20:15:56.125Z,8.00
2023-02-26T20:18:24.480Z,5.25
2023-02-26T20:20:51.377Z,4.90
2023-02-26T20:23:18.724Z,5.93
2023-02-26T20:25:48.736Z,5.32
2023-02-26T20:28:15.781Z,5.28
2023-02-26T20:30:42.594Z,5.57
2023-02-26T20:33:09.581Z,6.35
2023-02-26T20:35:37.701Z,7.25
2023-02-26T20:38:06.748Z,6.70
2023-02-26T20:40:33.606Z,6.13
2023-02-26T20:43:00.515Z,6.03
2023-02-26T20:45:27.694Z,5.00
2023-02-26T20:47:54.543Z,7.32
2023-02-26T20:50:21.384Z,7.82
2023-02-26T20:52:48.294Z,7.82
2023-02-26T20:55:15.235Z,7.00
2023-02-26T20:57:42.619Z,7.80
2023-02-26T21:00:11.461Z,8.18
2023-02-26T21:02:38.772Z,5.82
2023-02-26T21:05:06.532Z,4.18
2023-02-26T21:07:33.619Z,2.65
2023-02-26T21:10:01.561Z,2.67
2023-02-26T21:12:30.924Z,2.05
2023-02-26T21:14:57.882Z,1.73
2023-02-26T21:17:25.593Z,1.92
2023-02-26T21:19:53.413Z,2.22
2023-02-26T21:22:21.005Z,2.22
2023-02-26T21:24:47.910Z,1.70
2023-02-26T21:27:16.815Z,2.33
2023-02-26T21:29:43.970Z,3.55
2023-02-26T21:32:10.977Z,5.28
2023-02-26T21:34:37.906Z,2.30
2023-02-26T21:37:10.295Z,4.30
2023-02-26T21:39:38.284Z,5.70
2023-02-26T21:42:06.129Z,6.28
2023-02-26T21:44:34.847Z,7.15
2023-02-26T21:47:02.221Z,8.18
2023-02-26T21:49:31.014Z,5.10
2023-02-26T21:52:00.089Z,4.30
2023-02-26T21:54:27.112Z,4.95
2023-02-26T21:56:54.497Z,4.95
2023-02-26T21:59:23.393Z,4.38
2023-02-26T22:01:51.194Z,4.30
2023-02-26T22:04:19.277Z,3.80
2023-02-26T22:06:46.289Z,3.53
2023-02-26T22:09:13.402Z,3.60
2023-02-26T22:11:40.404Z,4.00
2023-02-26T22:14:07.219Z,3.70
2023-02-26T22:16:34.116Z,3.63
2023-02-26T22:19:01.119Z,4.15
2023-02-26T22:21:28.415Z,5.03
2023-02-26T22:23:55.716Z,4.90
2023-02-26T22:26:22.718Z,6.57
2023-02-26T22:28:49.540Z,16.00
2023-02-26T22:31:16.393Z,21.50
2023-02-26T22:33:43.349Z,22.73
2023-02-26T22:36:10.226Z,18.33
2023-02-26T22:38:37.164Z,14.85
2023-02-26T22:41:04.356Z,9.43
2023-02-26T22:43:31.189Z,9.30
2023-02-26T22:45:58.078Z,7.85
2023-02-26T22:48:25.120Z,4.65
2023-02-26T22:50:52.076Z,4.97
2023-02-26T22:53:18.947Z,4.70
2023-02-26T22:55:45.923Z,4.55
2023-02-26T22:58:12.776Z,3.20
2023-02-26T23:03:08.313Z,3.50
2023-02-26T23:05:35.152Z,3.80
2023-02-26T23:08:01.953Z,3.25
2023-02-26T23:10:28.782Z,3.35
2023-02-26T23:13:00.115Z,3.60
2023-02-26T23:15:27.058Z,4.53
2023-02-26T23:17:53.866Z,4.38
2023-02-26T23:20:20.939Z,3.40
2023-02-26T23:22:47.888Z,3.00
2023-02-26T23:25:14.721Z,2.25
2023-02-26T23:27:41.717Z,2.85
2023-02-26T23:30:09.384Z,2.88
2023-02-26T23:32:36.257Z,2.30
2023-02-26T23:35:03.439Z,2.30
2023-02-26T23:37:30.384Z,1.45
2023-02-26T23:39:57.338Z,1.50
2023-02-26T23:42:24.300Z,1.60
2023-02-26T23:44:51.155Z,1.08
2023-02-26T23:47:17.963Z,1.40
2023-02-26T23:49:44.817Z,1.60
2023-02-26T23:52:11.753Z,1.55
2023-02-26T23:54:40.631Z,1.77
2023-02-26T23:57:07.495Z,1.58
2023-02-26T23:59:34.494Z,2.72
